sensor_id;sensor_type;location;lat;lon;timestamp;pressure;altitude;pressure_sealevel;temperature;humidity
5703;BME280;2876;51.738;10.050;2023-03-15T00:05:44;98605.25;;;2.71;74.55
5703;BME280;2876;51.738;10.050;2023-03-15T00:11:47;98614.50;;;2.67;74.96
5703;BME280;2876;51.738;10.050;2023-03-15T00:17:50;98632.88;;;2.52;75.73
5703;BME280;2876;51.738;10.050;2023-03-15T00:23:52;98638.16;;;2.36;75.74
5703;BME280;2876;51.738;10.050;2023-03-15T00:29:53;98635.19;;;2.31;76.70
5703;BME280;2876;51.738;10.050;2023-03-15T00:35:55;98644.91;;;1.97;77.95
5703;BME280;2876;51.738;10.050;2023-03-15T00:41:57;98647.38;;;1.91;78.16
5703;BME280;2876;51.738;10.050;2023-03-15T00:47:59;98663.69;;;1.86;78.73
5703;BME280;2876;51.738;10.050;2023-03-15T00:54:01;98662.81;;;1.69;78.82
5703;BME280;2876;51.738;10.050;2023-03-15T01:00:04;98677.97;;;1.59;80.07
5703;BME280;2876;51.738;10.050;2023-03-15T01:06:18;98671.00;;;1.50;80.05
5703;BME280;2876;51.738;10.050;2023-03-15T01:12:21;98678.78;;;1.51;79.91
5703;BME280;2876;51.738;10.050;2023-03-15T01:18:23;98672.53;;;1.61;80.25
5703;BME280;2876;51.738;10.050;2023-03-15T01:24:25;98671.72;;;1.60;80.04
5703;BME280;2876;51.738;10.050;2023-03-15T01:30:27;98679.78;;;1.59;80.30
5703;BME280;2876;51.738;10.050;2023-03-15T01:36:29;98675.47;;;1.58;80.61
5703;BME280;2876;51.738;10.050;2023-03-15T01:42:31;98676.59;;;1.47;81.02
5703;BME280;2876;51.738;10.050;2023-03-15T01:48:43;98672.44;;;1.10;83.27
5703;BME280;2876;51.738;10.050;2023-03-15T01:54:55;98682.88;;;1.20;82.67
5703;BME280;2876;51.738;10.050;2023-03-15T02:00:57;98680.81;;;1.06;83.38
5703;BME280;2876;51.738;10.050;2023-03-15T02:07:01;98681.75;;;0.96;84.09
5703;BME280;2876;51.738;10.050;2023-03-15T02:13:04;98677.13;;;0.98;84.10
5703;BME280;2876;51.738;10.050;2023-03-15T02:19:16;98670.38;;;0.96;84.89
5703;BME280;2876;51.738;10.050;2023-03-15T02:31:51;98691.22;;;1.07;86.16
5703;BME280;2876;51.738;10.050;2023-03-15T02:37:54;98699.41;;;1.22;85.81
5703;BME280;2876;51.738;10.050;2023-03-15T02:44:02;98696.22;;;1.44;85.40
5703;BME280;2876;51.738;10.050;2023-03-15T02:50:06;98693.72;;;1.69;84.40
5703;BME280;2876;51.738;10.050;2023-03-15T02:56:08;98708.41;;;2.14;82.15
5703;BME280;2876;51.738;10.050;2023-03-15T03:02:11;98714.22;;;2.25;79.42
5703;BME280;2876;51.738;10.050;2023-03-15T03:08:14;98735.09;;;2.37;79.62
5703;BME280;2876;51.738;10.050;2023-03-15T03:14:17;98739.19;;;2.23;81.55
5703;BME280;2876;51.738;10.050;2023-03-15T03:20:19;98744.59;;;2.05;85.99
5703;BME280;2876;51.738;10.050;2023-03-15T03:26:21;98748.56;;;1.75;90.00
5703;BME280;2876;51.738;10.050;2023-03-15T03:32:28;98755.69;;;1.74;92.81
5703;BME280;2876;51.738;10.050;2023-03-15T03:38:30;98765.06;;;1.69;96.12
5703;BME280;2876;51.738;10.050;2023-03-15T03:44:32;98772.59;;;1.56;98.23
5703;BME280;2876;51.738;10.050;2023-03-15T03:50:34;98777.94;;;1.38;100.00
5703;BME280;2876;51.738;10.050;2023-03-15T03:56:36;98786.19;;;1.17;100.00
5703;BME280;2876;51.738;10.050;2023-03-15T04:02:40;98796.34;;;1.30;100.00
5703;BME280;2876;51.738;10.050;2023-03-15T04:08:45;98805.56;;;1.25;100.00
5703;BME280;2876;51.738;10.050;2023-03-15T04:14:46;98807.22;;;1.26;100.00
5703;BME280;2876;51.738;10.050;2023-03-15T04:20:48;98810.63;;;1.19;100.00
5703;BME280;2876;51.738;10.050;2023-03-15T04:26:55;98822.97;;;1.36;100.00
5703;BME280;2876;51.738;10.050;2023-03-15T04:32:58;98836.03;;;1.38;100.00
5703;BME280;2876;51.738;10.050;2023-03-15T04:39:00;98838.06;;;1.44;100.00
5703;BME280;2876;51.738;10.050;2023-03-15T04:45:08;98836.88;;;1.38;100.00
5703;BME280;2876;51.738;10.050;2023-03-15T04:51:10;98844.16;;;1.44;100.00
5703;BME280;2876;51.738;10.050;2023-03-15T04:57:12;98854.22;;;1.41;100.00
5703;BME280;2876;51.738;10.050;2023-03-15T05:03:14;98857.38;;;1.44;100.00
5703;BME280;2876;51.738;10.050;2023-03-15T05:09:16;98855.44;;;1.72;100.00
5703;BME280;2876;51.738;10.050;2023-03-15T05:15:19;98864.94;;;1.83;100.00
5703;BME280;2876;51.738;10.050;2023-03-15T05:21:20;98878.34;;;1.90;100.00
5703;BME280;2876;51.738;10.050;2023-03-15T05:27:22;98888.41;;;1.86;100.00
5703;BME280;2876;51.738;10.050;2023-03-15T05:33:24;98889.28;;;1.95;100.00
5703;BME280;2876;51.738;10.050;2023-03-15T05:39:26;98913.44;;;1.74;100.00
5703;BME280;2876;51.738;10.050;2023-03-15T05:45:28;98918.81;;;1.82;100.00
5703;BME280;2876;51.738;10.050;2023-03-15T05:51:30;98940.38;;;1.95;100.00
5703;BME280;2876;51.738;10.050;2023-03-15T05:57:32;98950.16;;;2.03;100.00
5703;BME280;2876;51.738;10.050;2023-03-15T06:03:34;98958.47;;;2.08;100.00
5703;BME280;2876;51.738;10.050;2023-03-15T06:09:37;98966.25;;;2.10;100.00
5703;BME280;2876;51.738;10.050;2023-03-15T06:15:38;98984.63;;;2.11;100.00
5703;BME280;2876;51.738;10.050;2023-03-15T06:21:40;98992.28;;;2.22;100.00
5703;BME280;2876;51.738;10.050;2023-03-15T06:27:42;98997.03;;;2.37;100.00
5703;BME280;2876;51.738;10.050;2023-03-15T06:33:44;99008.97;;;2.41;100.00
5703;BME280;2876;51.738;10.050;2023-03-15T06:39:46;99009.75;;;2.59;100.00
5703;BME280;2876;51.738;10.050;2023-03-15T06:45:48;99020.53;;;2.66;100.00
5703;BME280;2876;51.738;10.050;2023-03-15T06:51:50;99036.34;;;2.84;98.64
5703;BME280;2876;51.738;10.050;2023-03-15T06:57:52;99042.72;;;2.99;97.60
5703;BME280;2876;51.738;10.050;2023-03-15T07:03:54;99064.91;;;2.98;96.21
5703;BME280;2876;51.738;10.050;2023-03-15T07:09:56;99059.34;;;3.17;95.84
5703;BME280;2876;51.738;10.050;2023-03-15T07:15:58;99068.97;;;3.18;94.20
5703;BME280;2876;51.738;10.050;2023-03-15T07:22:00;99076.47;;;3.23;93.08
5703;BME280;2876;51.738;10.050;2023-03-15T07:28:02;99085.06;;;3.25;89.04
5703;BME280;2876;51.738;10.050;2023-03-15T07:34:04;99089.78;;;3.05;90.23
5703;BME280;2876;51.738;10.050;2023-03-15T07:40:08;99087.47;;;3.10;89.78
5703;BME280;2876;51.738;10.050;2023-03-15T07:46:10;99106.91;;;3.19;88.10
5703;BME280;2876;51.738;10.050;2023-03-15T07:52:12;99106.09;;;3.26;86.54
5703;BME280;2876;51.738;10.050;2023-03-15T07:58:15;99100.25;;;3.15;87.11
5703;BME280;2876;51.738;10.050;2023-03-15T08:04:20;99107.31;;;3.40;86.29
5703;BME280;2876;51.738;10.050;2023-03-15T08:10:22;99105.53;;;3.49;84.96
5703;BME280;2876;51.738;10.050;2023-03-15T08:16:24;99115.59;;;3.37;84.27
5703;BME280;2876;51.738;10.050;2023-03-15T08:22:26;99130.03;;;3.43;84.73
5703;BME280;2876;51.738;10.050;2023-03-15T08:28:28;99137.84;;;3.52;84.13
5703;BME280;2876;51.738;10.050;2023-03-15T08:34:33;99129.97;;;3.69;84.69
5703;BME280;2876;51.738;10.050;2023-03-15T08:40:35;99144.56;;;4.40;81.50
5703;BME280;2876;51.738;10.050;2023-03-15T08:46:40;99157.19;;;4.46;79.48
5703;BME280;2876;51.738;10.050;2023-03-15T08:52:42;99161.16;;;4.66;78.46
5703;BME280;2876;51.738;10.050;2023-03-15T08:58:44;99168.97;;;6.34;73.25
5703;BME280;2876;51.738;10.050;2023-03-15T09:04:46;99175.97;;;6.35;69.61
5703;BME280;2876;51.738;10.050;2023-03-15T09:10:48;99195.00;;;5.21;72.64
5703;BME280;2876;51.738;10.050;2023-03-15T09:16:54;99196.88;;;5.04;77.60
5703;BME280;2876;51.738;10.050;2023-03-15T09:22:57;99208.97;;;4.50;77.92
5703;BME280;2876;51.738;10.050;2023-03-15T09:28:59;99215.25;;;4.49;81.50
5703;BME280;2876;51.738;10.050;2023-03-15T09:35:07;99228.22;;;4.60;81.13
5703;BME280;2876;51.738;10.050;2023-03-15T09:47:50;99227.63;;;8.87;66.02
5703;BME280;2876;51.738;10.050;2023-03-15T10:00:54;99246.78;;;6.22;73.51
5703;BME280;2876;51.738;10.050;2023-03-15T10:07:00;99247.47;;;5.52;74.34
5703;BME280;2876;51.738;10.050;2023-03-15T10:13:30;99251.56;;;8.74;64.66
5703;BME280;2876;51.738;10.050;2023-03-15T10:25:36;99256.72;;;9.19;58.29
5703;BME280;2876;51.738;10.050;2023-03-15T10:31:41;99261.97;;;9.89;57.76
5703;BME280;2876;51.738;10.050;2023-03-15T10:37:46;99277.72;;;9.99;55.42
5703;BME280;2876;51.738;10.050;2023-03-15T10:44:04;99268.84;;;11.81;50.81
5703;BME280;2876;51.738;10.050;2023-03-15T10:50:09;99280.41;;;13.42;45.82
5703;BME280;2876;51.738;10.050;2023-03-15T10:56:26;99275.09;;;10.47;51.48
5703;BME280;2876;51.738;10.050;2023-03-15T11:02:29;99275.59;;;7.94;60.64
5703;BME280;2876;51.738;10.050;2023-03-15T11:08:41;99263.19;;;9.52;56.71
5703;BME280;2876;51.738;10.050;2023-03-15T11:14:47;99274.44;;;11.00;51.31
5703;BME280;2876;51.738;10.050;2023-03-15T11:20:50;99281.13;;;12.93;45.54
5703;BME280;2876;51.738;10.050;2023-03-15T11:27:02;99281.69;;;16.64;36.56
5703;BME280;2876;51.738;10.050;2023-03-15T11:33:07;99299.28;;;11.41;46.13
5703;BME280;2876;51.738;10.050;2023-03-15T11:39:16;99312.78;;;7.80;57.75
5703;BME280;2876;51.738;10.050;2023-03-15T11:45:32;99313.81;;;5.29;64.40
5703;BME280;2876;51.738;10.050;2023-03-15T11:51:35;99310.38;;;4.11;68.17
5703;BME280;2876;51.738;10.050;2023-03-15T11:57:44;99317.94;;;3.72;70.96
5703;BME280;2876;51.738;10.050;2023-03-15T12:03:46;99322.59;;;4.38;69.38
5703;BME280;2876;51.738;10.050;2023-03-15T12:15:57;99334.97;;;6.97;62.84
5703;BME280;2876;51.738;10.050;2023-03-15T12:22:00;99329.31;;;6.22;65.19
5703;BME280;2876;51.738;10.050;2023-03-15T12:28:07;99323.78;;;7.48;64.44
5703;BME280;2876;51.738;10.050;2023-03-15T12:34:15;99321.38;;;8.05;60.83
5703;BME280;2876;51.738;10.050;2023-03-15T12:40:50;99328.00;;;6.65;65.88
5703;BME280;2876;51.738;10.050;2023-03-15T12:46:55;99335.78;;;9.21;59.95
5703;BME280;2876;51.738;10.050;2023-03-15T12:52:59;99327.63;;;13.13;46.34
5703;BME280;2876;51.738;10.050;2023-03-15T12:59:24;99342.22;;;9.98;53.88
5703;BME280;2876;51.738;10.050;2023-03-15T13:05:35;99355.72;;;7.56;64.67
5703;BME280;2876;51.738;10.050;2023-03-15T13:18:17;99360.78;;;7.28;69.17
5703;BME280;2876;51.738;10.050;2023-03-15T13:24:43;99343.50;;;11.72;54.98
5703;BME280;2876;51.738;10.050;2023-03-15T13:30:54;99347.50;;;15.29;42.14
5703;BME280;2876;51.738;10.050;2023-03-15T13:36:58;99355.97;;;16.92;38.55
5703;BME280;2876;51.738;10.050;2023-03-15T13:43:02;99359.75;;;17.19;34.07
5703;BME280;2876;51.738;10.050;2023-03-15T13:49:04;99354.13;;;16.69;34.98
5703;BME280;2876;51.738;10.050;2023-03-15T13:55:11;99369.38;;;11.93;43.35
5703;BME280;2876;51.738;10.050;2023-03-15T14:01:15;99366.50;;;9.04;51.06
5703;BME280;2876;51.738;10.050;2023-03-15T14:07:27;99371.16;;;8.36;54.66
5703;BME280;2876;51.738;10.050;2023-03-15T14:13:55;99385.63;;;6.02;66.03
5703;BME280;2876;51.738;10.050;2023-03-15T14:20:07;99383.28;;;5.26;69.54
5703;BME280;2876;51.738;10.050;2023-03-15T14:26:36;99399.16;;;4.93;69.97
5703;BME280;2876;51.738;10.050;2023-03-15T14:32:38;99407.25;;;5.42;67.67
5703;BME280;2876;51.738;10.050;2023-03-15T14:38:53;99436.53;;;6.07;73.06
5703;BME280;2876;51.738;10.050;2023-03-15T14:44:57;99451.16;;;5.87;73.29
5703;BME280;2876;51.738;10.050;2023-03-15T14:50:59;99436.84;;;5.72;73.51
5703;BME280;2876;51.738;10.050;2023-03-15T14:57:01;99433.91;;;8.99;65.84
5703;BME280;2876;51.738;10.050;2023-03-15T15:03:12;99445.84;;;11.16;53.55
5703;BME280;2876;51.738;10.050;2023-03-15T15:09:21;99458.06;;;12.53;49.52
5703;BME280;2876;51.738;10.050;2023-03-15T15:15:23;99462.00;;;13.73;44.63
5703;BME280;2876;51.738;10.050;2023-03-15T15:21:29;99479.00;;;14.80;43.18
5703;BME280;2876;51.738;10.050;2023-03-15T15:27:34;99475.88;;;16.64;38.98
5703;BME280;2876;51.738;10.050;2023-03-15T15:33:36;99476.94;;;17.90;35.53
5703;BME280;2876;51.738;10.050;2023-03-15T15:39:38;99470.66;;;15.55;39.03
5703;BME280;2876;51.738;10.050;2023-03-15T15:45:42;99476.00;;;13.88;41.46
5703;BME280;2876;51.738;10.050;2023-03-15T15:51:46;99477.66;;;13.00;43.86
5703;BME280;2876;51.738;10.050;2023-03-15T15:57:51;99481.41;;;12.79;44.65
5703;BME280;2876;51.738;10.050;2023-03-15T16:03:54;99482.84;;;12.88;44.94
5703;BME280;2876;51.738;10.050;2023-03-15T16:09:57;99489.09;;;13.47;44.26
5703;BME280;2876;51.738;10.050;2023-03-15T16:16:00;99483.94;;;14.40;42.10
5703;BME280;2876;51.738;10.050;2023-03-15T16:22:02;99494.44;;;13.60;43.64
5703;BME280;2876;51.738;10.050;2023-03-15T16:28:04;99494.50;;;14.41;41.63
5703;BME280;2876;51.738;10.050;2023-03-15T16:34:11;99509.06;;;15.45;39.56
5703;BME280;2876;51.738;10.050;2023-03-15T16:40:25;99501.63;;;13.66;40.46
5703;BME280;2876;51.738;10.050;2023-03-15T16:46:27;99510.84;;;11.53;44.24
5703;BME280;2876;51.738;10.050;2023-03-15T16:52:29;99513.53;;;9.63;48.97
5703;BME280;2876;51.738;10.050;2023-03-15T16:58:33;99528.16;;;9.82;50.93
5703;BME280;2876;51.738;10.050;2023-03-15T17:04:35;99526.00;;;8.52;52.85
5703;BME280;2876;51.738;10.050;2023-03-15T17:10:37;99533.09;;;6.98;58.30
5703;BME280;2876;51.738;10.050;2023-03-15T17:16:41;99543.03;;;6.16;62.46
5703;BME280;2876;51.738;10.050;2023-03-15T17:22:43;99556.41;;;5.65;65.05
5703;BME280;2876;51.738;10.050;2023-03-15T17:28:46;99554.22;;;5.10;67.56
5703;BME280;2876;51.738;10.050;2023-03-15T17:34:48;99550.50;;;4.69;69.46
5703;BME280;2876;51.738;10.050;2023-03-15T17:40:50;99564.53;;;4.17;71.32
5703;BME280;2876;51.738;10.050;2023-03-15T17:46:53;99565.31;;;3.46;74.49
5703;BME280;2876;51.738;10.050;2023-03-15T17:53:05;99570.66;;;3.09;76.23
5703;BME280;2876;51.738;10.050;2023-03-15T17:59:10;99573.56;;;2.78;77.75
5703;BME280;2876;51.738;10.050;2023-03-15T18:05:18;99575.38;;;2.59;79.78
5703;BME280;2876;51.738;10.050;2023-03-15T18:11:31;99582.97;;;2.05;81.92
5703;BME280;2876;51.738;10.050;2023-03-15T18:17:34;99571.53;;;2.34;81.72
5703;BME280;2876;51.738;10.050;2023-03-15T18:23:36;99585.31;;;2.08;81.62
5703;BME280;2876;51.738;10.050;2023-03-15T18:29:38;99593.34;;;1.68;83.67
5703;BME280;2876;51.738;10.050;2023-03-15T18:35:40;99591.00;;;1.74;84.25
5703;BME280;2876;51.738;10.050;2023-03-15T18:41:42;99594.31;;;1.67;84.44
5703;BME280;2876;51.738;10.050;2023-03-15T18:47:44;99590.03;;;1.95;83.06
5703;BME280;2876;51.738;10.050;2023-03-15T18:53:47;99604.66;;;1.99;82.97
5703;BME280;2876;51.738;10.050;2023-03-15T18:59:49;99604.53;;;1.91;82.66
5703;BME280;2876;51.738;10.050;2023-03-15T19:05:51;99610.91;;;1.69;84.36
5703;BME280;2876;51.738;10.050;2023-03-15T19:11:54;99607.66;;;1.46;85.83
5703;BME280;2876;51.738;10.050;2023-03-15T19:17:56;99605.13;;;1.44;86.65
5703;BME280;2876;51.738;10.050;2023-03-15T19:23:58;99610.72;;;1.51;87.25
5703;BME280;2876;51.738;10.050;2023-03-15T19:30:00;99615.03;;;1.52;86.42
5703;BME280;2876;51.738;10.050;2023-03-15T19:36:03;99625.00;;;1.39;87.69
5703;BME280;2876;51.738;10.050;2023-03-15T19:42:05;99632.09;;;1.38;87.88
5703;BME280;2876;51.738;10.050;2023-03-15T19:48:07;99634.69;;;1.29;87.37
5703;BME280;2876;51.738;10.050;2023-03-15T19:54:09;99652.31;;;1.18;87.86
5703;BME280;2876;51.738;10.050;2023-03-15T20:00:14;99658.47;;;1.29;88.05
5703;BME280;2876;51.738;10.050;2023-03-15T20:06:16;99663.88;;;1.27;88.35
5703;BME280;2876;51.738;10.050;2023-03-15T20:12:20;99679.41;;;1.20;88.69
5703;BME280;2876;51.738;10.050;2023-03-15T20:18:22;99675.41;;;0.95;89.28
5703;BME280;2876;51.738;10.050;2023-03-15T20:24:24;99686.59;;;0.88;90.06
5703;BME280;2876;51.738;10.050;2023-03-15T20:30:26;99693.72;;;0.76;90.68
5703;BME280;2876;51.738;10.050;2023-03-15T20:36:28;99696.81;;;0.81;89.43
5703;BME280;2876;51.738;10.050;2023-03-15T20:42:31;99700.56;;;0.79;89.54
5703;BME280;2876;51.738;10.050;2023-03-15T20:48:34;99697.66;;;0.61;90.10
5703;BME280;2876;51.738;10.050;2023-03-15T20:54:36;99715.69;;;0.44;90.90
5703;BME280;2876;51.738;10.050;2023-03-15T21:00:38;99718.72;;;0.40;90.80
5703;BME280;2876;51.738;10.050;2023-03-15T21:06:41;99715.84;;;0.32;92.22
5703;BME280;2876;51.738;10.050;2023-03-15T21:12:43;99715.75;;;0.33;91.21
5703;BME280;2876;51.738;10.050;2023-03-15T21:18:45;99706.41;;;0.29;91.20
5703;BME280;2876;51.738;10.050;2023-03-15T21:24:52;99707.88;;;0.11;92.77
5703;BME280;2876;51.738;10.050;2023-03-15T21:30:57;99711.50;;;0.10;92.02
5703;BME280;2876;51.738;10.050;2023-03-15T21:36:59;99712.59;;;-0.04;93.75
5703;BME280;2876;51.738;10.050;2023-03-15T21:43:01;99719.03;;;0.03;93.15
5703;BME280;2876;51.738;10.050;2023-03-15T21:49:03;99715.81;;;-0.01;93.01
5703;BME280;2876;51.738;10.050;2023-03-15T21:55:06;99715.81;;;-0.01;93.18
5703;BME280;2876;51.738;10.050;2023-03-15T22:01:09;99713.44;;;-0.04;92.61
5703;BME280;2876;51.738;10.050;2023-03-15T22:07:14;99716.53;;;-0.10;93.68
5703;BME280;2876;51.738;10.050;2023-03-15T22:13:16;99719.66;;;-0.05;93.20
5703;BME280;2876;51.738;10.050;2023-03-15T22:19:18;99724.59;;;-0.22;93.57
5703;BME280;2876;51.738;10.050;2023-03-15T22:25:20;99719.44;;;-0.24;93.94
5703;BME280;2876;51.738;10.050;2023-03-15T22:31:22;99724.47;;;-0.21;93.25
5703;BME280;2876;51.738;10.050;2023-03-15T22:37:24;99718.00;;;-0.28;94.23
5703;BME280;2876;51.738;10.050;2023-03-15T22:43:26;99723.41;;;-0.30;93.94
5703;BME280;2876;51.738;10.050;2023-03-15T22:49:28;99729.38;;;-0.28;94.19
5703;BME280;2876;51.738;10.050;2023-03-15T22:55:30;99730.09;;;-0.26;94.18
5703;BME280;2876;51.738;10.050;2023-03-15T23:01:32;99744.72;;;-0.33;93.21
5703;BME280;2876;51.738;10.050;2023-03-15T23:07:34;99736.81;;;-0.44;93.57
5703;BME280;2876;51.738;10.050;2023-03-15T23:13:36;99741.00;;;-0.53;93.43
5703;BME280;2876;51.738;10.050;2023-03-15T23:19:38;99745.66;;;-0.56;94.33
5703;BME280;2876;51.738;10.050;2023-03-15T23:25:41;99746.38;;;-0.65;93.83
5703;BME280;2876;51.738;10.050;2023-03-15T23:31:43;99750.19;;;-0.69;94.49
5703;BME280;2876;51.738;10.050;2023-03-15T23:37:45;99755.72;;;-0.72;95.29
5703;BME280;2876;51.738;10.050;2023-03-15T23:43:48;99762.03;;;-0.75;94.98
5703;BME280;2876;51.738;10.050;2023-03-15T23:49:50;99769.94;;;-0.75;94.14
5703;BME280;2876;51.738;10.050;2023-03-15T23:55:53;99775.41;;;-0.89;94.26
